Phoenix, AZ (85012)

9:46 PM MST on January 26, 2015 (GMT -0700)
North Central Phoenix | Change Station
CLOSE
Current Station
Personal Weather Station
Location: Phoenix, AZ
Elevation: 1155 ft
Nearby Weather Stations

Elev 1155 ft 33.52 °N, 112.08 °W | Updated 8 seconds ago

Rain
Rain
55.5 °F
Feels Like 55.5 °F
N
0.0
Wind Variable Wind from WSW
Gusts 0.0 mph

Today
High -- | Low -- °F
--% Chance of Precip.
Yesterday
High -- | Low -- °F
Precip. -- in
7:28 AM 5:53 PM
Waxing Crescent, 50% visible
Pressure 30.11 in
Visibility 10.0 miles
Clouds Scattered Clouds 7000 ft
Overcast 9500 ft
Dew Point 49 °F
Humidity 80%
Rainfall 0.02 in
Snow Depth Not available.
UV 0 out of 12
Pollen 4.30 out of 12
Air Quality Not available.
Flu Activity Not available.
METAR KPHX 270351Z 12003KT 10SM SCT070 OVC095 16/07 A3013 RMK AO2 RAE30 SLP195 P0000 T01610072

More Conditions Fewer Conditions

Pressure 30.11 in
Visibility 10.0 miles
Clouds Scattered Clouds 7000 ft
Overcast 9500 ft
Dew Point 49 °F
Humidity 80%
Rainfall 0.02 in
Snow Depth Not available.
UV 0 out of 12
Pollen 4.30 out of 12
Air Quality Not available.
Flu Activity Not available.
METAR KPHX 270351Z 12003KT 10SM SCT070 OVC095 16/07 A3013 RMK AO2 RAE30 SLP195 P0000 T01610072

More Conditions Fewer Conditions

10-Day Weather Forecast

Almanac

Astronomy

Jan. 26, 2015 Rise Set
Actual Time
Civil Twilight
Nautical Twilight
Astronomical Twilight
Moon
Length of Visible Light
Length of Day
Tomorrow will be .
, % of the Moon is Illuminated

Today's Extremes

State Highs State Lows

Community

WunderPhotos

Upload Photos

1,790,530 photos uploaded!

WunderBlogs® & News

Nearby

Air Quality

  Air Quality AQ Index Pollutant
Not available.

Snow Depth

Station Depth Elevation

Earthquake Activity

City Distance Mag. Time & Date
Minimum magnitude displayed is 2.5.

Coastal Water Temperatures

Place Temperature

Nearby Weather Stations